createdAt,value
2023-03-28T00:01:07.760Z,2.65
2023-03-28T00:03:41.082Z,2.66
2023-03-28T00:06:12.663Z,2.65
2023-03-28T00:08:41.669Z,2.63
2023-03-28T00:11:13.001Z,2.64
2023-03-28T00:13:40.973Z,2.64
2023-03-28T00:16:13.799Z,2.68
2023-03-28T00:18:43.887Z,2.71
2023-03-28T00:21:25.925Z,2.74
2023-03-28T00:23:55.939Z,2.76
2023-03-28T00:26:28.099Z,2.75
2023-03-28T00:28:57.808Z,2.77
2023-03-28T00:31:27.720Z,2.77
2023-03-28T00:33:55.779Z,2.82
2023-03-28T00:36:27.738Z,2.84
2023-03-28T00:38:55.681Z,2.85
2023-03-28T00:41:25.358Z,2.85
2023-03-28T00:43:56.275Z,2.82
2023-03-28T00:46:42.771Z,2.84
2023-03-28T00:49:23.897Z,2.89
2023-03-28T00:51:58.171Z,2.93
2023-03-28T00:54:30.900Z,2.94
2023-03-28T00:57:02.581Z,2.86
2023-03-28T00:59:34.018Z,2.86
2023-03-28T01:02:02.736Z,2.87
2023-03-28T01:04:47.907Z,2.83
2023-03-28T01:07:17.689Z,2.81
2023-03-28T01:09:47.054Z,2.83
2023-03-28T01:12:18.087Z,2.83
2023-03-28T01:14:46.899Z,2.69
2023-03-28T01:17:15.005Z,2.62
2023-03-28T01:20:16.130Z,2.59
2023-03-28T01:22:57.430Z,2.54
2023-03-28T01:25:57.396Z,2.54
2023-03-28T01:29:15.705Z,2.48
2023-03-28T01:32:11.327Z,2.39
2023-03-28T01:34:57.945Z,2.32
2023-03-28T01:37:38.947Z,2.31
2023-03-28T01:40:24.747Z,2.30
2023-03-28T01:43:01.909Z,2.26
2023-03-28T01:45:41.857Z,2.19
2023-03-28T01:48:18.837Z,2.21
2023-03-28T01:50:57.703Z,2.15
2023-03-28T01:53:33.778Z,2.16
2023-03-28T01:56:09.312Z,2.12
2023-03-28T01:58:43.396Z,2.10
2023-03-28T02:01:38.127Z,2.09
2023-03-28T02:04:20.608Z,2.10
2023-03-28T02:06:52.314Z,2.10
2023-03-28T02:09:24.827Z,2.15
2023-03-28T02:12:00.443Z,2.20
2023-03-28T02:14:35.130Z,2.18
2023-03-28T02:17:10.557Z,2.17
2023-03-28T02:19:39.978Z,2.19
2023-03-28T02:22:18.926Z,2.20
2023-03-28T02:24:51.878Z,2.15
2023-03-28T02:27:24.035Z,2.15
2023-03-28T02:29:52.689Z,2.16
2023-03-28T02:32:23.121Z,2.13
2023-03-28T02:34:55.211Z,2.16
2023-03-28T02:37:41.278Z,2.12
2023-03-28T02:40:28.569Z,2.14
2023-03-28T02:43:18.202Z,2.15
2023-03-28T02:46:07.658Z,2.14
2023-03-28T02:48:56.672Z,2.06
2023-03-28T02:51:35.999Z,2.04
2023-03-28T02:54:25.451Z,2.03
2023-03-28T02:57:14.355Z,2.06
2023-03-28T02:59:44.332Z,2.06
2023-03-28T03:02:18.529Z,2.01
2023-03-28T03:04:46.872Z,2.06
2023-03-28T03:07:15.246Z,1.99
2023-03-28T03:09:45.808Z,1.98
2023-03-28T03:12:14.654Z,1.95
2023-03-28T03:14:43.320Z,1.94
2023-03-28T03:17:11.477Z,1.94
2023-03-28T03:19:39.982Z,1.96
2023-03-28T03:22:08.751Z,1.98
2023-03-28T03:24:37.705Z,1.98
2023-03-28T03:27:05.723Z,2.00
2023-03-28T03:29:38.780Z,1.99
2023-03-28T03:32:07.923Z,1.98
2023-03-28T03:34:38.097Z,1.99
2023-03-28T03:37:06.222Z,1.97
2023-03-28T03:39:34.113Z,2.03
2023-03-28T03:42:02.004Z,2.03
2023-03-28T03:44:30.187Z,2.07
2023-03-28T03:46:58.757Z,2.11
2023-03-28T03:49:26.691Z,2.13
2023-03-28T03:51:54.578Z,2.09
2023-03-28T03:54:22.530Z,2.09
2023-03-28T03:56:50.431Z,2.16
2023-03-28T03:59:18.755Z,2.09
2023-03-28T04:01:46.692Z,2.13
2023-03-28T04:04:15.429Z,2.15
2023-03-28T04:06:43.333Z,2.15
2023-03-28T04:09:11.216Z,2.16
2023-03-28T04:11:39.213Z,2.15
2023-03-28T04:14:07.148Z,2.11
2023-03-28T04:16:40.277Z,2.08
2023-03-28T04:19:11.948Z,2.05
2023-03-28T04:21:43.860Z,2.08
2023-03-28T04:24:16.885Z,2.03
2023-03-28T04:26:47.162Z,1.98
2023-03-28T04:29:15.066Z,2.01
2023-03-28T04:31:51.085Z,2.01
2023-03-28T04:34:21.340Z,2.07
2023-03-28T04:36:49.234Z,2.14
2023-03-28T04:39:17.120Z,2.16
2023-03-28T04:41:47.373Z,2.07
2023-03-28T04:44:15.438Z,1.98
2023-03-28T04:46:43.500Z,1.92
2023-03-28T04:49:12.069Z,1.91
2023-03-28T04:51:39.954Z,1.95
2023-03-28T04:54:07.962Z,2.01
2023-03-28T04:56:36.223Z,2.05
2023-03-28T04:59:04.706Z,2.08
2023-03-28T05:01:32.701Z,2.12
2023-03-28T05:04:00.654Z,2.07
2023-03-28T05:06:28.588Z,2.03
2023-03-28T05:08:57.381Z,2.00
2023-03-28T05:11:25.380Z,1.95
2023-03-28T05:13:53.342Z,1.89
2023-03-28T05:16:21.338Z,1.84
2023-03-28T05:18:49.609Z,1.86
2023-03-28T05:21:17.721Z,1.93
2023-03-28T05:23:51.254Z,2.02
2023-03-28T05:26:20.367Z,2.09
2023-03-28T05:28:48.586Z,2.14
2023-03-28T05:31:18.681Z,2.20
2023-03-28T05:33:46.821Z,2.27
2023-03-28T05:36:14.874Z,2.31
2023-03-28T05:38:42.843Z,2.33
2023-03-28T05:41:11.306Z,2.40
2023-03-28T05:43:39.268Z,2.42
2023-03-28T05:46:07.809Z,2.44
2023-03-28T05:48:35.779Z,2.48
2023-03-28T05:51:03.724Z,2.51
2023-03-28T05:53:31.737Z,2.55
2023-03-28T05:55:59.703Z,2.59
2023-03-28T05:58:27.683Z,2.59
2023-03-28T06:00:58.143Z,2.63
2023-03-28T06:03:27.244Z,2.66
2023-03-28T06:05:55.369Z,2.72
2023-03-28T06:08:23.397Z,2.67
2023-03-28T06:10:51.284Z,2.63
2023-03-28T06:13:19.227Z,2.63
2023-03-28T06:15:47.169Z,2.60
2023-03-28T06:18:15.129Z,2.56
2023-03-28T06:20:43.147Z,2.58
2023-03-28T06:23:11.091Z,2.64
2023-03-28T06:25:39.047Z,2.68
2023-03-28T06:28:06.997Z,2.67
2023-03-28T06:30:35.066Z,2.68
2023-03-28T06:33:03.050Z,2.72
2023-03-28T06:35:31.163Z,2.74
2023-03-28T06:37:59.876Z,2.73
2023-03-28T06:40:27.967Z,2.75
2023-03-28T06:42:56.019Z,2.78
2023-03-28T06:45:24.008Z,2.77
2023-03-28T06:47:53.101Z,2.86
2023-03-28T06:50:21.462Z,2.99
2023-03-28T06:52:49.345Z,3.11
2023-03-28T06:55:17.384Z,3.17
2023-03-28T06:57:45.359Z,3.28
2023-03-28T07:00:14.012Z,3.40
2023-03-28T07:02:42.111Z,3.45
2023-03-28T07:05:10.518Z,3.46
2023-03-28T07:07:38.450Z,3.52
2023-03-28T07:10:07.324Z,3.55
2023-03-28T07:12:35.370Z,3.58
2023-03-28T07:15:03.361Z,3.60
2023-03-28T07:17:31.287Z,3.63
2023-03-28T07:19:59.159Z,3.68
2023-03-28T07:22:27.203Z,3.68
2023-03-28T07:24:55.600Z,3.72
2023-03-28T07:27:25.048Z,3.75
2023-03-28T07:29:53.241Z,3.78
2023-03-28T07:32:22.097Z,3.79
2023-03-28T07:34:50.064Z,3.79
2023-03-28T07:37:18.215Z,3.79
2023-03-28T07:39:46.253Z,3.77
2023-03-28T07:42:15.351Z,3.77
2023-03-28T07:44:43.560Z,3.75
2023-03-28T07:47:11.825Z,3.74
2023-03-28T07:49:40.989Z,3.75
2023-03-28T07:52:09.440Z,3.77
2023-03-28T07:54:37.451Z,3.82
2023-03-28T07:57:05.957Z,3.87
2023-03-28T07:59:34.778Z,3.93
2023-03-28T08:02:02.986Z,3.95
2023-03-28T08:04:30.992Z,4.02
2023-03-28T08:06:59.450Z,4.13
2023-03-28T08:09:27.447Z,4.25
2023-03-28T08:11:55.270Z,4.38
2023-03-28T08:14:23.528Z,4.50
2023-03-28T08:16:52.040Z,4.62
2023-03-28T08:19:20.005Z,4.71
2023-03-28T08:21:47.982Z,4.87
2023-03-28T08:24:25.277Z,5.02
2023-03-28T08:26:58.179Z,5.14
2023-03-28T08:29:26.379Z,5.28
2023-03-28T08:31:54.540Z,5.36
2023-03-28T08:34:22.433Z,5.48
2023-03-28T08:36:50.446Z,5.58
2023-03-28T08:39:18.477Z,5.70
2023-03-28T08:42:07.454Z,5.80
2023-03-28T08:44:50.560Z,5.81
2023-03-28T08:47:27.571Z,5.89
2023-03-28T08:50:12.938Z,5.87
2023-03-28T08:52:42.354Z,5.85
2023-03-28T08:55:25.876Z,5.89
2023-03-28T08:57:55.614Z,5.91
2023-03-28T09:00:25.863Z,5.94
2023-03-28T09:02:53.890Z,6.01
2023-03-28T09:06:08.912Z,6.10
2023-03-28T09:08:45.543Z,6.12
2023-03-28T09:11:39.399Z,6.13
2023-03-28T09:14:28.989Z,6.15
2023-03-28T09:17:10.913Z,6.17
2023-03-28T09:19:56.905Z,6.21
2023-03-28T09:22:54.700Z,6.14
2023-03-28T09:25:41.042Z,6.16
2023-03-28T09:28:30.292Z,6.19
2023-03-28T09:31:00.468Z,6.22
2023-03-28T09:33:41.978Z,6.25
2023-03-28T09:36:37.783Z,6.28
2023-03-28T09:39:28.972Z,6.34
2023-03-28T09:42:28.617Z,6.40
2023-03-28T09:45:06.465Z,6.40
2023-03-28T09:47:34.888Z,6.41
2023-03-28T09:50:12.423Z,6.42
2023-03-28T09:52:41.766Z,6.36
2023-03-28T09:55:23.207Z,6.39
2023-03-28T09:58:02.468Z,6.41
2023-03-28T10:00:31.029Z,6.43
2023-03-28T10:02:59.088Z,6.47
2023-03-28T10:05:41.443Z,6.57
2023-03-28T10:08:36.355Z,6.67
2023-03-28T10:11:08.215Z,6.68
2023-03-28T10:13:42.309Z,6.76
2023-03-28T10:16:13.273Z,6.80
2023-03-28T10:18:43.862Z,6.78
2023-03-28T10:21:16.170Z,6.74
2023-03-28T10:23:50.017Z,6.75
2023-03-28T10:26:25.788Z,6.78
2023-03-28T10:28:56.022Z,6.87
2023-03-28T10:31:30.675Z,6.88
2023-03-28T10:34:01.072Z,6.93
2023-03-28T10:36:45.092Z,6.88
2023-03-28T10:39:28.002Z,6.87
2023-03-28T10:41:59.569Z,6.92
2023-03-28T10:44:32.919Z,6.93
2023-03-28T10:47:05.194Z,6.95
2023-03-28T10:49:43.934Z,7.04
2023-03-28T10:52:29.820Z,7.08
2023-03-28T10:55:21.973Z,7.18
2023-03-28T10:58:12.763Z,7.13
2023-03-28T11:00:55.439Z,7.08
2023-03-28T11:03:44.639Z,7.10
2023-03-28T11:06:35.847Z,7.16
2023-03-28T11:09:36.763Z,7.17
2023-03-28T11:15:12.252Z,7.20
2023-03-28T11:18:18.565Z,7.25
2023-03-28T11:20:52.296Z,7.29
2023-03-28T11:23:47.596Z,7.27
2023-03-28T11:26:24.495Z,7.25
2023-03-28T11:29:08.470Z,7.23
2023-03-28T11:31:42.555Z,7.23
2023-03-28T11:34:34.211Z,7.25
2023-03-28T11:37:18.870Z,7.32
2023-03-28T11:39:49.575Z,7.41
2023-03-28T11:42:25.750Z,7.42
2023-03-28T11:45:02.475Z,7.50
2023-03-28T11:47:38.691Z,7.60
2023-03-28T11:50:16.693Z,7.65
2023-03-28T11:53:01.625Z,7.73
2023-03-28T11:55:36.032Z,7.77
2023-03-28T11:58:12.742Z,7.77
2023-03-28T12:01:04.791Z,7.80
2023-03-28T12:04:01.527Z,7.79
2023-03-28T12:06:55.894Z,7.83
2023-03-28T12:09:52.279Z,7.85
2023-03-28T12:12:34.504Z,7.89
2023-03-28T12:15:22.764Z,7.90
2023-03-28T12:17:56.020Z,7.92
2023-03-28T12:20:41.916Z,7.93
2023-03-28T12:23:23.654Z,7.99
2023-03-28T12:25:59.064Z,8.03
2023-03-28T12:28:44.909Z,8.06
2023-03-28T12:31:20.078Z,8.07
2023-03-28T12:34:00.990Z,8.11
2023-03-28T12:36:37.872Z,8.20
2023-03-28T12:39:25.906Z,8.29
2023-03-28T12:41:55.214Z,8.28
2023-03-28T12:44:30.240Z,8.22
2023-03-28T12:47:10.582Z,8.20
2023-03-28T12:49:53.928Z,8.15
2023-03-28T12:52:43.454Z,8.20
2023-03-28T12:55:27.064Z,8.20
2023-03-28T12:58:12.598Z,8.16
2023-03-28T13:00:59.039Z,8.14
2023-03-28T13:03:28.393Z,8.18
2023-03-28T13:06:21.632Z,8.27
2023-03-28T13:09:16.235Z,8.29
2023-03-28T13:12:07.448Z,8.32
2023-03-28T13:14:43.372Z,8.37
2023-03-28T13:17:19.345Z,8.31
2023-03-28T13:20:27.123Z,8.33
2023-03-28T13:23:06.065Z,8.35
2023-03-28T13:25:38.946Z,8.35
2023-03-28T13:28:13.053Z,8.31
2023-03-28T13:30:44.796Z,8.33
2023-03-28T13:33:30.936Z,8.33
2023-03-28T13:35:58.915Z,8.40
2023-03-28T13:38:29.809Z,8.43
2023-03-28T13:41:10.490Z,8.40
2023-03-28T13:43:43.312Z,8.28
2023-03-28T13:46:30.025Z,8.22
2023-03-28T13:49:04.248Z,8.28
2023-03-28T13:51:39.265Z,8.34
2023-03-28T13:54:07.451Z,8.33
2023-03-28T13:56:37.284Z,8.33
2023-03-28T13:59:09.277Z,8.35
2023-03-28T14:01:46.145Z,8.38
2023-03-28T14:04:24.373Z,8.37
2023-03-28T14:06:54.172Z,8.33
2023-03-28T14:09:31.854Z,8.31
2023-03-28T14:12:09.800Z,8.29
2023-03-28T14:14:47.371Z,8.23
2023-03-28T14:17:19.604Z,8.21
2023-03-28T14:19:52.467Z,8.20
2023-03-28T14:22:25.349Z,8.19
2023-03-28T14:24:55.529Z,8.12
2023-03-28T14:27:51.857Z,8.08
2023-03-28T14:30:22.854Z,8.09
2023-03-28T14:33:02.457Z,8.12
2023-03-28T14:35:35.707Z,8.17
2023-03-28T14:38:08.625Z,8.18
2023-03-28T14:40:39.471Z,8.16
2023-03-28T14:43:22.662Z,8.19
2023-03-28T14:45:55.392Z,8.23
2023-03-28T14:48:28.459Z,8.28
2023-03-28T14:50:57.402Z,8.27
2023-03-28T14:53:29.104Z,8.33
2023-03-28T14:56:03.410Z,8.41
2023-03-28T14:58:32.891Z,8.49
2023-03-28T15:01:03.223Z,8.54
2023-03-28T15:03:40.141Z,8.58
2023-03-28T15:06:10.707Z,8.61
2023-03-28T15:08:40.665Z,8.67
2023-03-28T15:11:24.905Z,8.73
2023-03-28T15:13:59.997Z,8.75
2023-03-28T15:16:29.340Z,8.78
2023-03-28T15:19:08.338Z,8.78
2023-03-28T15:21:38.637Z,8.78
2023-03-28T15:24:11.363Z,8.78
2023-03-28T15:26:45.046Z,8.79
2023-03-28T15:29:18.511Z,8.83
2023-03-28T15:31:47.333Z,8.84
2023-03-28T15:34:24.942Z,8.85
2023-03-28T15:36:59.908Z,8.85
2023-03-28T15:39:36.111Z,8.77
2023-03-28T15:42:22.632Z,8.75
2023-03-28T15:44:59.642Z,8.75
2023-03-28T15:47:31.500Z,8.77
2023-03-28T15:50:06.080Z,8.77
2023-03-28T15:52:35.573Z,8.83
2023-03-28T15:55:07.146Z,8.89
2023-03-28T15:57:35.502Z,8.92
2023-03-28T16:00:03.414Z,8.97
2023-03-28T16:02:34.093Z,8.98
2023-03-28T16:05:11.492Z,9.02
2023-03-28T16:07:45.465Z,9.05
2023-03-28T16:10:17.560Z,9.15
2023-03-28T16:12:46.531Z,9.18
2023-03-28T16:15:15.612Z,9.25
2023-03-28T16:17:44.612Z,9.29
2023-03-28T16:20:23.862Z,9.34
2023-03-28T16:22:51.981Z,9.42
2023-03-28T16:25:19.946Z,9.44
2023-03-28T16:27:47.894Z,9.46
2023-03-28T16:30:21.000Z,9.46
2023-03-28T16:32:49.044Z,9.49
2023-03-28T16:35:17.103Z,9.44
2023-03-28T16:37:45.104Z,9.43
2023-03-28T16:40:13.378Z,9.41
2023-03-28T16:42:41.244Z,9.42
2023-03-28T16:45:13.058Z,9.42
2023-03-28T16:47:41.691Z,9.39
2023-03-28T16:50:10.939Z,9.37
2023-03-28T16:52:40.291Z,9.30
2023-03-28T16:55:12.695Z,9.25
2023-03-28T16:57:40.838Z,9.17
2023-03-28T17:00:13.206Z,9.11
2023-03-28T17:02:41.261Z,9.05
2023-03-28T17:05:09.633Z,8.98
2023-03-28T17:07:38.243Z,8.92
2023-03-28T17:10:06.849Z,8.86
2023-03-28T17:12:35.502Z,8.79
2023-03-28T17:15:03.528Z,8.74
2023-03-28T17:17:31.603Z,8.70
2023-03-28T17:19:59.553Z,8.64
2023-03-28T17:22:27.780Z,8.57
2023-03-28T17:24:58.265Z,8.52
2023-03-28T17:27:26.139Z,8.45
2023-03-28T17:29:54.111Z,8.40
2023-03-28T17:32:22.250Z,8.33
2023-03-28T17:34:50.229Z,8.28
2023-03-28T17:37:18.315Z,8.22
2023-03-28T17:39:47.910Z,8.19
2023-03-28T17:42:15.866Z,8.14
2023-03-28T17:44:43.870Z,8.08
2023-03-28T17:47:11.868Z,8.05
2023-03-28T17:49:39.880Z,8.02
2023-03-28T17:52:08.186Z,7.99
2023-03-28T17:54:36.093Z,7.97
2023-03-28T17:57:04.847Z,7.93
2023-03-28T17:59:32.999Z,7.90
2023-03-28T18:02:01.126Z,7.88
2023-03-28T18:04:29.160Z,7.85
2023-03-28T18:06:57.110Z,7.85
2023-03-28T18:09:25.051Z,7.84
2023-03-28T18:11:53.607Z,7.82
2023-03-28T18:14:21.500Z,7.81
2023-03-28T18:16:49.838Z,7.81
2023-03-28T18:19:19.842Z,7.81
2023-03-28T18:21:48.023Z,7.84
2023-03-28T18:24:16.363Z,7.85
2023-03-28T18:26:44.301Z,7.88
2023-03-28T18:29:12.808Z,7.89
2023-03-28T18:31:41.776Z,7.88
2023-03-28T18:34:09.680Z,7.87
2023-03-28T18:36:38.998Z,7.87
2023-03-28T18:39:07.485Z,7.86
2023-03-28T18:41:35.777Z,7.84
2023-03-28T18:44:04.834Z,7.83
2023-03-28T18:46:32.984Z,7.84
2023-03-28T18:49:02.127Z,7.81
2023-03-28T18:51:30.335Z,7.77
2023-03-28T18:53:58.570Z,7.75
2023-03-28T18:56:26.498Z,7.75
2023-03-28T18:58:54.821Z,7.74
2023-03-28T19:01:24.451Z,7.75
2023-03-28T19:03:53.468Z,7.75
2023-03-28T19:06:21.582Z,7.75
2023-03-28T19:08:49.902Z,7.75
2023-03-28T19:11:20.333Z,7.74
2023-03-28T19:13:48.397Z,7.74
2023-03-28T19:16:20.299Z,7.72
2023-03-28T19:18:48.632Z,7.74
2023-03-28T19:21:18.155Z,7.71
2023-03-28T19:23:48.318Z,7.70
2023-03-28T19:26:17.270Z,7.66
2023-03-28T19:28:45.153Z,7.68
2023-03-28T19:31:14.694Z,7.68
2023-03-28T19:33:43.267Z,7.67
2023-03-28T19:36:12.690Z,7.70
2023-03-28T19:38:41.441Z,7.70
2023-03-28T19:41:17.228Z,7.70
2023-03-28T19:43:46.019Z,7.71
2023-03-28T19:46:19.844Z,7.73
2023-03-28T19:48:48.111Z,7.73
2023-03-28T19:51:16.772Z,7.71
2023-03-28T19:53:44.661Z,7.66
2023-03-28T19:56:13.393Z,7.67
2023-03-28T19:58:42.203Z,7.64
2023-03-28T20:01:10.203Z,7.64
2023-03-28T20:03:38.153Z,7.64
2023-03-28T20:06:08.838Z,7.61
2023-03-28T20:08:36.911Z,7.57
2023-03-28T20:11:08.558Z,7.54
2023-03-28T20:13:36.865Z,7.47
2023-03-28T20:16:07.431Z,7.45
2023-03-28T20:18:35.927Z,7.46
2023-03-28T20:21:06.602Z,7.43
2023-03-28T20:23:34.948Z,7.43
2023-03-28T20:26:16.327Z,7.39
2023-03-28T20:28:44.376Z,7.42
2023-03-28T20:31:14.047Z,7.45
2023-03-28T20:33:42.373Z,7.42
2023-03-28T20:36:10.506Z,7.43
2023-03-28T20:38:38.529Z,7.43
2023-03-28T20:41:14.482Z,7.44
2023-03-28T20:43:48.173Z,7.43
2023-03-28T20:46:21.303Z,7.47
2023-03-28T20:48:53.661Z,7.50
2023-03-28T20:51:23.720Z,7.54
2023-03-28T20:53:55.738Z,7.58
2023-03-28T20:56:24.023Z,7.59
2023-03-28T20:58:52.038Z,7.61
2023-03-28T21:01:27.551Z,7.60
2023-03-28T21:03:59.251Z,7.60
2023-03-28T21:06:39.399Z,7.60
2023-03-28T21:09:09.555Z,7.57
2023-03-28T21:11:39.710Z,7.53
2023-03-28T21:14:09.110Z,7.51
2023-03-28T21:16:38.698Z,7.49
2023-03-28T21:19:07.074Z,7.46
2023-03-28T21:21:35.309Z,7.44
2023-03-28T21:24:04.846Z,7.43
2023-03-28T21:26:32.881Z,7.44
2023-03-28T21:29:00.883Z,7.46
2023-03-28T21:31:32.512Z,7.47
2023-03-28T21:34:01.060Z,7.46
2023-03-28T21:36:29.557Z,7.36
2023-03-28T21:38:57.988Z,7.29
2023-03-28T21:41:28.431Z,7.27
2023-03-28T21:43:56.460Z,7.24
2023-03-28T21:46:24.697Z,7.22
2023-03-28T21:48:52.731Z,7.22
2023-03-28T21:51:20.878Z,7.22
2023-03-28T21:53:48.854Z,7.20
2023-03-28T21:56:17.969Z,7.21
2023-03-28T21:58:46.238Z,7.20
2023-03-28T22:01:15.938Z,7.22
2023-03-28T22:03:44.030Z,7.24
2023-03-28T22:06:12.168Z,7.29
2023-03-28T22:08:41.147Z,7.29
2023-03-28T22:11:20.349Z,7.28
2023-03-28T22:13:51.088Z,7.27
2023-03-28T22:16:19.040Z,7.28
2023-03-28T22:18:50.845Z,7.32
2023-03-28T22:21:19.265Z,7.31
2023-03-28T22:23:48.680Z,7.31
2023-03-28T22:26:17.749Z,7.30
2023-03-28T22:28:46.122Z,7.30
2023-03-28T22:31:15.108Z,7.29
2023-03-28T22:33:43.292Z,7.27
2023-03-28T22:36:12.089Z,7.27
2023-03-28T22:38:40.007Z,7.25
2023-03-28T22:41:08.957Z,7.26
2023-03-28T22:43:37.649Z,7.26
2023-03-28T22:46:07.026Z,7.28
2023-03-28T22:48:34.958Z,7.28
2023-03-28T22:51:03.142Z,7.30
2023-03-28T22:53:31.266Z,7.30
2023-03-28T22:56:00.045Z,7.26
2023-03-28T22:58:28.608Z,7.24
2023-03-28T23:00:56.781Z,7.22
2023-03-28T23:03:25.211Z,7.22
2023-03-28T23:05:53.148Z,7.21
2023-03-28T23:08:21.536Z,7.21
2023-03-28T23:10:49.643Z,7.19
2023-03-28T23:13:17.793Z,7.20
2023-03-28T23:15:46.175Z,7.19
2023-03-28T23:18:15.903Z,7.16
2023-03-28T23:20:44.941Z,7.13
2023-03-28T23:23:14.090Z,7.14
2023-03-28T23:25:42.100Z,7.10
2023-03-28T23:28:10.050Z,7.06
2023-03-28T23:30:40.096Z,7.03
2023-03-28T23:33:08.598Z,7.01
2023-03-28T23:35:36.818Z,6.98
2023-03-28T23:38:04.968Z,6.91
2023-03-28T23:40:33.563Z,6.90
2023-03-28T23:43:01.617Z,6.89
2023-03-28T23:45:29.638Z,6.89
2023-03-28T23:47:57.766Z,6.87
2023-03-28T23:50:25.757Z,6.86
2023-03-28T23:52:53.965Z,6.84
2023-03-28T23:55:22.117Z,6.83
2023-03-28T23:57:50.081Z,6.87
